Time;durP1;ratioP1;P1;durP2;ratioP2;P2;SDS_P1;SDS_P2;PMS_P1;PMS_P2;Temp;Humidity;BMP_temperature;BMP_pressure;BME280_temperature;BME280_humidity;BME280_pressure;Samples;Min_cycle;Max_cycle;Signal;HPM_P1;HPM_P2
2022/11/13 00:02:48;;;;;;;20.00;17.60;;;;;;;1.49;100.00;101346.47;10460682;28;20049;-68
2022/11/13 00:08:09;;;;;;;17.23;15.57;;;;;;;1.35;100.00;101334.88;10459808;28;20077;-68
2022/11/13 00:13:29;;;;;;;17.90;16.20;;;;;;;1.36;100.00;101330.56;10459743;28;20045;-68
2022/11/13 00:18:50;;;;;;;17.95;16.35;;;;;;;1.21;100.00;101336.22;10458647;28;20502;-69
2022/11/13 00:24:10;;;;;;;17.90;16.30;;;;;;;1.23;100.00;101325.06;10444987;28;20080;-69
2022/11/13 00:29:30;;;;;;;17.50;15.50;;;;;;;1.10;100.00;101324.69;10460381;28;20052;-68
2022/11/13 00:34:51;;;;;;;17.50;15.90;;;;;;;1.05;100.00;101321.97;10459605;28;20494;-69
2022/11/13 00:40:11;;;;;;;17.23;15.48;;;;;;;1.38;100.00;101315.97;10442910;28;20510;-68
2022/11/13 00:45:32;;;;;;;18.00;16.38;;;;;;;1.41;100.00;101316.00;10459711;28;20056;-69
2022/11/13 00:50:52;;;;;;;18.25;16.35;;;;;;;1.36;100.00;101309.84;10458560;28;20506;-69
2022/11/13 00:56:13;;;;;;;17.00;15.52;;;;;;;0.87;100.00;101316.28;10458665;28;20052;-68
2022/11/13 01:01:33;;;;;;;18.75;16.95;;;;;;;0.85;100.00;101325.72;10458844;28;20045;-69
2022/11/13 01:06:54;;;;;;;19.10;17.27;;;;;;;0.86;100.00;101322.31;10459189;28;20044;-70
2022/11/13 01:12:15;;;;;;;17.67;16.17;;;;;;;1.37;100.00;101321.94;10457211;28;20053;-67
2022/11/13 01:17:35;;;;;;;16.23;14.70;;;;;;;1.05;100.00;101315.91;10456982;28;20045;-68
2022/11/13 01:22:55;;;;;;;18.75;16.95;;;;;;;0.90;100.00;101311.19;10457434;28;20080;-69
2022/11/13 01:28:16;;;;;;;23.02;16.77;;;;;;;0.94;100.00;101302.69;10457758;28;20044;-69
2022/11/13 01:33:36;;;;;;;35.85;18.85;;;;;;;1.14;100.00;101290.25;10462869;28;20049;-69
2022/11/13 01:38:57;;;;;;;24.55;18.13;;;;;;;1.22;100.00;101283.56;10465623;28;20402;-69
2022/11/13 01:44:18;;;;;;;60.47;16.77;;;;;;;1.40;100.00;101275.41;10466085;28;20052;-69
2022/11/13 01:49:41;;;;;;;31.23;16.15;;;;;;;1.52;100.00;101276.59;10465974;28;20473;-69
2022/11/13 01:55:10;;;;;;;27.98;16.30;;;;;;;1.47;100.00;101273.00;10466064;28;20061;-69
2022/11/13 02:00:30;;;;;;;45.17;15.15;;;;;;;1.54;100.00;101266.25;10464586;28;20045;-68
2022/11/13 02:05:52;;;;;;;18.15;16.52;;;;;;;1.57;100.00;101258.56;10465274;28;20445;-67
2022/11/13 02:11:13;;;;;;;17.95;16.08;;;;;;;1.60;100.00;101255.19;10465270;28;20053;-69
2022/11/13 02:16:36;;;;;;;30.77;16.70;;;;;;;1.78;100.00;101253.03;10466742;28;20053;-69
2022/11/13 02:22:25;;;;;;;26.75;16.33;;;;;;;1.82;100.00;101252.25;10465604;28;20041;-69
2022/11/13 02:27:47;;;;;;;95.78;18.65;;;;;;;1.83;100.00;101256.59;10463657;28;20465;-69
2022/11/13 02:33:29;;;;;;;46.85;17.95;;;;;;;1.90;100.00;101253.28;10462834;28;20479;-69
2022/11/13 02:38:52;;;;;;;20.50;18.45;;;;;;;1.86;100.00;101255.78;10462643;28;20049;-73
2022/11/13 02:44:12;;;;;;;33.67;19.92;;;;;;;1.79;100.00;101249.59;10462638;28;20137;-71
2022/11/13 02:49:32;;;;;;;30.05;19.80;;;;;;;2.03;100.00;101255.31;10462588;28;20060;-71
2022/11/13 02:54:53;;;;;;;48.67;20.48;;;;;;;1.97;100.00;101249.13;10448105;28;20049;-71
2022/11/13 03:00:14;;;;;;;24.13;20.27;;;;;;;1.93;100.00;101236.94;10464812;28;20128;-71
2022/11/13 03:05:34;;;;;;;33.78;19.77;;;;;;;2.23;100.00;101232.41;10465754;28;20053;-72
2022/11/13 03:10:54;;;;;;;27.83;21.95;;;;;;;2.42;100.00;101228.47;10464881;28;20048;-72
2022/11/13 03:16:15;;;;;;;22.27;19.92;;;;;;;2.39;100.00;101223.25;10463752;28;20057;-72
2022/11/13 03:21:36;;;;;;;20.10;18.20;;;;;;;2.26;100.00;101214.34;10465698;28;20076;-71
2022/11/13 03:26:56;;;;;;;21.20;19.20;;;;;;;2.22;100.00;101216.81;10464959;28;20088;-71
2022/11/13 03:32:17;;;;;;;21.35;19.25;;;;;;;2.38;100.00;101215.41;10464831;28;20407;-71
2022/11/13 03:37:37;;;;;;;19.30;17.50;;;;;;;2.52;100.00;101213.97;10459883;28;20045;-71
2022/11/13 03:42:57;;;;;;;19.60;17.80;;;;;;;2.53;100.00;101208.81;10460721;28;20049;-71
2022/11/13 03:48:18;;;;;;;18.55;16.73;;;;;;;2.44;100.00;101206.03;10459910;28;20045;-70
2022/11/13 03:53:38;;;;;;;18.10;16.50;;;;;;;2.22;100.00;101215.09;10460919;28;20049;-71
2022/11/13 03:58:58;;;;;;;16.98;15.40;;;;;;;2.08;100.00;101210.44;10444448;28;20057;-70
2022/11/13 04:04:19;;;;;;;17.05;15.55;;;;;;;1.91;100.00;101202.31;10460822;28;20049;-70
2022/11/13 04:09:39;;;;;;;16.92;15.43;;;;;;;1.68;100.00;101209.56;10460110;28;20562;-71
2022/11/13 04:14:59;;;;;;;17.08;14.95;;;;;;;1.70;100.00;101195.81;10459830;28;20083;-70
2022/11/13 04:20:20;;;;;;;14.88;13.45;;;;;;;1.64;100.00;101199.97;10458726;28;20042;-70
2022/11/13 04:25:40;;;;;;;15.68;14.27;;;;;;;1.59;100.00;101193.78;10460554;28;20053;-70
2022/11/13 04:31:00;;;;;;;14.93;13.50;;;;;;;1.48;100.00;101175.41;10458987;28;20119;-71
2022/11/13 04:36:20;;;;;;;14.32;13.02;;;;;;;1.22;100.00;101167.91;10458599;28;20132;-70
2022/11/13 04:47:19;;;;;;;14.25;12.95;;;;;;;1.30;100.00;101168.09;10458786;28;20037;-70
2022/11/13 04:52:40;;;;;;;13.20;12.13;;;;;;;1.21;100.00;101170.47;10458732;28;20048;-70
2022/11/13 04:58:00;;;;;;;12.57;11.48;;;;;;;1.16;100.00;101162.59;10457791;28;20041;-70
2022/11/13 05:03:21;;;;;;;12.48;11.27;;;;;;;1.20;100.00;101156.66;10459235;28;20041;-70
2022/11/13 05:08:41;;;;;;;12.88;11.70;;;;;;;1.29;100.00;101149.94;10458594;28;20053;-71
2022/11/13 05:14:03;;;;;;;10.68;9.68;;;;;;;1.20;100.00;101146.28;10457676;28;20049;-71
2022/11/13 05:19:23;;;;;;;11.23;10.15;;;;;;;1.09;100.00;101144.25;10457362;28;20123;-71
2022/11/13 05:24:44;;;;;;;11.50;10.30;;;;;;;1.17;100.00;101143.59;10457029;28;20049;-71
2022/11/13 05:30:04;;;;;;;11.50;10.40;;;;;;;1.28;100.00;101133.50;10458075;28;20045;-71
2022/11/13 05:35:25;;;;;;;10.40;9.38;;;;;;;1.23;100.00;101128.19;10456943;28;20049;-71
2022/11/13 05:40:45;;;;;;;11.40;10.38;;;;;;;1.04;100.00;101133.78;10456555;28;20041;-70
2022/11/13 05:46:12;;;;;;;9.80;8.85;;;;;;;1.08;100.00;101121.81;10456319;28;20053;-70
2022/11/13 05:51:33;;;;;;;13.17;9.60;;;;;;;1.11;100.00;101124.47;10459152;28;20422;-70
2022/11/13 05:56:53;;;;;;;10.32;9.32;;;;;;;1.07;100.00;101123.53;10455903;28;20081;-70
2022/11/13 06:02:13;;;;;;;9.88;8.98;;;;;;;1.08;100.00;101126.97;10456382;28;20041;-71
2022/11/13 06:07:34;;;;;;;9.05;8.15;;;;;;;0.91;100.00;101130.03;10456882;28;20049;-71
2022/11/13 06:12:54;;;;;;;9.68;8.77;;;;;;;0.67;100.00;101125.13;10458223;28;20057;-71
2022/11/13 06:18:14;;;;;;;10.02;9.02;;;;;;;0.73;100.00;101132.16;10457933;28;20434;-71
2022/11/13 06:23:36;;;;;;;9.60;8.60;;;;;;;0.86;100.00;101128.16;10464009;28;20494;-71
2022/11/13 06:28:57;;;;;;;11.07;10.07;;;;;;;0.69;100.00;101123.44;10464014;28;20053;-72
2022/11/13 06:34:18;;;;;;;10.38;9.38;;;;;;;0.77;100.00;101133.97;10465230;28;20049;-73
2022/11/13 06:39:38;;;;;;;9.82;8.82;;;;;;;0.63;100.00;101127.59;10448307;28;20037;-73
2022/11/13 06:44:58;;;;;;;10.52;9.40;;;;;;;0.70;100.00;101132.06;10463507;28;20498;-73
2022/11/13 06:50:18;;;;;;;10.23;9.23;;;;;;;0.69;100.00;101132.91;10463091;28;20507;-72
2022/11/13 06:55:48;;;;;;;9.88;9.07;;;;;;;0.80;100.00;101130.56;10464827;28;20491;-72
2022/11/13 07:01:20;;;;;;;9.52;8.65;;;;;;;0.93;100.00;101130.03;10463107;28;20037;-72
2022/11/13 07:06:41;;;;;;;10.38;9.38;;;;;;;0.98;100.00;101125.88;10462635;28;20040;-72
2022/11/13 07:12:01;;;;;;;10.40;9.40;;;;;;;1.08;100.00;101126.97;10463130;28;20402;-73
2022/11/13 07:17:21;;;;;;;10.82;9.73;;;;;;;1.15;100.00;101124.59;10463754;28;20049;-73
2022/11/13 07:22:42;;;;;;;10.30;9.30;;;;;;;1.29;100.00;101111.94;10462735;28;20441;-72
2022/11/13 07:28:02;;;;;;;13.25;12.05;;;;;;;1.61;100.00;101117.84;10446426;28;20417;-72
2022/11/13 07:33:22;;;;;;;11.27;10.18;;;;;;;1.63;100.00;101123.94;10461396;28;20123;-72
2022/11/13 07:38:43;;;;;;;12.95;11.75;;;;;;;1.71;100.00;101117.19;10461980;28;20044;-71
2022/11/13 07:44:03;;;;;;;13.52;12.40;;;;;;;1.86;100.00;101116.66;10459831;28;20424;-71
2022/11/13 07:49:28;;;;;;;11.00;9.90;;;;;;;1.98;100.00;101109.13;10460512;28;20124;-71
2022/11/13 07:54:48;;;;;;;12.20;11.07;;;;;;;2.03;100.00;101112.66;10460525;28;20049;-71
2022/11/13 08:00:09;;;;;;;11.85;10.75;;;;;;;2.17;100.00;101105.19;10461117;28;20041;-71
2022/11/13 08:05:29;;;;;;;11.32;10.35;;;;;;;2.25;100.00;101100.13;10460003;28;20048;-71
2022/11/13 08:10:49;;;;;;;10.70;9.57;;;;;;;2.48;100.00;101098.84;10459330;28;20056;-71
2022/11/13 08:16:10;;;;;;;10.88;9.82;;;;;;;2.49;100.00;101097.13;10459495;28;20048;-71
2022/11/13 08:21:30;;;;;;;11.65;10.48;;;;;;;2.59;100.00;101092.97;10461167;28;20045;-71
2022/11/13 08:26:50;;;;;;;10.75;9.65;;;;;;;2.77;100.00;101095.88;10458327;28;20136;-71
2022/11/13 08:32:14;;;;;;;10.10;9.20;;;;;;;3.02;100.00;101084.19;10458743;28;20045;-71
2022/11/13 08:37:34;;;;;;;10.52;9.50;;;;;;;3.18;100.00;101077.47;10443367;28;20041;-71
2022/11/13 08:42:59;;;;;;;9.70;8.90;;;;;;;3.29;100.00;101078.53;10458699;28;20033;-71
2022/11/13 08:48:19;;;;;;;13.50;12.35;;;;;;;3.45;100.00;101085.69;10458317;28;20048;-72
2022/11/13 08:53:39;;;;;;;12.02;10.15;;;;;;;3.31;100.00;101079.41;10457797;28;20498;-71
2022/11/13 08:59:00;;;;;;;11.02;10.00;;;;;;;3.59;100.00;101072.00;10457461;28;20041;-71
2022/11/13 09:04:21;;;;;;;10.23;9.23;;;;;;;3.84;100.00;101070.59;10459280;28;20052;-71
2022/11/13 09:09:41;;;;;;;10.15;9.23;;;;;;;3.78;100.00;101067.06;10457359;28;20045;-71
2022/11/13 09:15:01;;;;;;;10.63;9.73;;;;;;;4.01;100.00;101082.94;10457254;28;20049;-71
2022/11/13 09:20:23;;;;;;;10.13;9.13;;;;;;;4.20;98.46;101085.75;10455840;28;20136;-71
2022/11/13 09:25:43;;;;;;;9.82;8.82;;;;;;;4.31;99.47;101078.94;10456734;28;20232;-71
2022/11/13 09:31:05;;;;;;;10.45;9.43;;;;;;;4.24;99.67;101067.56;10457289;28;20057;-71
2022/11/13 09:36:25;;;;;;;10.18;9.27;;;;;;;4.62;97.59;101077.50;10456733;28;20095;-71
2022/11/13 09:41:58;;;;;;;9.02;8.23;;;;;;;4.97;94.43;101076.94;10456218;28;20077;-71
2022/11/13 09:47:29;;;;;;;10.07;9.15;;;;;;;5.30;91.97;101073.69;10456694;28;20045;-71
2022/11/13 09:52:50;;;;;;;11.23;10.32;;;;;;;5.36;91.84;101065.00;10457188;28;20052;-71
2022/11/13 09:58:30;;;;;;;9.60;8.80;;;;;;;5.56;92.32;101055.56;10463971;28;20041;-71
2022/11/13 10:04:00;;;;;;;9.98;9.18;;;;;;;5.89;90.48;101052.25;10463857;28;20053;-71
2022/11/13 10:09:30;;;;;;;13.40;9.77;;;;;;;5.80;92.32;101055.69;10465464;28;20045;-71
2022/11/13 10:14:56;;;;;;;9.43;8.63;;;;;;;6.00;91.21;101045.34;10465091;28;20044;-71
2022/11/13 10:21:02;;;;;;;10.07;9.20;;;;;;;6.19;90.76;101046.25;10463270;28;20483;-71
2022/11/13 10:26:28;;;;;;;9.82;8.95;;;;;;;6.36;90.31;101038.47;10454098;28;20052;-71
2022/11/13 10:31:51;;;;;;;10.70;9.80;;;;;;;6.63;88.43;101036.75;10464370;28;20049;-71
2022/11/13 10:37:43;;;;;;;11.50;10.60;;;;;;;7.10;89.29;101028.88;10462777;28;20136;-71
2022/11/13 10:43:12;;;;;;;10.30;9.50;;;;;;;8.72;76.78;101024.59;10463012;28;20505;-72
2022/11/13 10:48:34;;;;;;;9.77;8.88;;;;;;;9.65;72.24;101013.19;10461967;28;20049;-71
2022/11/13 10:53:57;;;;;;;8.60;7.97;;;;;;;9.96;69.19;101013.66;10462526;28;20123;-71
2022/11/13 10:59:18;;;;;;;8.20;7.40;;;;;;;10.52;69.04;100998.81;10461889;28;20045;-71
2022/11/13 11:04:38;;;;;;;9.20;8.35;;;;;;;11.51;60.81;101000.50;10460031;28;20045;-72
2022/11/13 11:09:59;;;;;;;8.93;8.13;;;;;;;11.56;61.73;100991.66;10461868;28;20127;-71
2022/11/13 11:15:40;;;;;;;7.57;6.97;;;;;;;12.33;59.21;100995.25;10461026;28;20045;-71
2022/11/13 11:21:06;;;;;;;8.27;7.57;;;;;;;12.54;57.37;100989.47;10459718;28;20053;-70
2022/11/13 11:26:38;;;;;;;8.33;7.70;;;;;;;11.70;62.13;100972.06;10459650;28;20045;-71
2022/11/13 11:32:25;;;;;;;8.65;7.82;;;;;;;11.31;62.63;100970.19;10460491;28;20045;-71
2022/11/13 11:37:56;;;;;;;9.40;8.60;;;;;;;10.04;67.87;100966.22;10460105;28;20510;-71
2022/11/13 11:43:28;;;;;;;10.25;9.43;;;;;;;9.47;71.15;100959.13;10459913;28;20049;-71
2022/11/13 11:48:49;;;;;;;10.05;9.25;;;;;;;9.44;72.64;100955.69;10459472;28;20041;-71
2022/11/13 11:54:38;;;;;;;9.55;8.75;;;;;;;9.80;70.01;100954.34;10459441;28;20078;-72
2022/11/13 11:59:58;;;;;;;9.68;8.77;;;;;;;10.34;67.93;100944.78;10445112;28;20045;-71
2022/11/13 12:05:28;;;;;;;11.57;10.57;;;;;;;10.03;67.78;100940.88;10444102;28;20407;-71
2022/11/13 12:11:13;;;;;;;10.93;9.90;;;;;;;8.89;74.84;100930.06;10457648;28;20049;-71
2022/11/13 12:16:41;;;;;;;11.73;10.82;;;;;;;8.61;76.24;100935.59;10457326;28;20053;-71
2022/11/13 12:22:05;;;;;;;;;;;;;;;8.19;78.83;100926.31;10459485;28;20414;-71
2022/11/13 12:27:46;;;;;;;12.40;11.40;;;;;;;8.09;80.13;100910.66;10458395;28;19968;-68
2022/11/13 12:33:36;;;;;;;13.55;12.45;;;;;;;8.07;80.23;100898.47;10458459;28;20061;-68
2022/11/13 12:39:02;;;;;;;14.50;13.30;;;;;;;8.09;80.23;100894.94;10457732;28;20044;-68
2022/11/13 12:44:23;;;;;;;13.90;12.70;;;;;;;7.77;82.16;100889.09;10458694;28;20053;-68
2022/11/13 12:49:43;;;;;;;14.60;13.25;;;;;;;7.90;81.69;100887.25;10456941;28;20057;-68
2022/11/13 12:55:07;;;;;;;14.95;13.60;;;;;;;7.89;82.34;100883.78;10457071;28;20053;-68
2022/11/13 13:00:30;;;;;;;14.73;13.52;;;;;;;7.97;82.28;100878.47;10456705;28;20498;-68
2022/11/13 13:06:19;;;;;;;15.55;14.25;;;;;;;7.81;81.96;100873.34;10458221;28;20053;-67
2022/11/13 13:11:52;;;;;;;13.75;12.65;;;;;;;7.94;82.17;100871.53;10456762;28;20462;-68
2022/11/13 13:17:12;;;;;;;13.68;12.48;;;;;;;7.83;82.02;100862.88;10456558;28;20510;-68
2022/11/13 13:22:34;;;;;;;14.43;13.23;;;;;;;7.77;83.03;100855.94;10456137;28;20045;-69
2022/11/13 13:28:20;;;;;;;15.20;13.88;;;;;;;8.05;81.61;100847.84;10455945;28;20049;-72
2022/11/13 13:34:02;;;;;;;14.35;13.15;;;;;;;7.80;83.05;100853.31;10456904;28;20056;-72
2022/11/13 13:39:25;;;;;;;14.73;13.52;;;;;;;7.88;82.82;100844.50;10455791;28;20037;-73
2022/11/13 13:45:17;;;;;;;14.82;13.40;;;;;;;7.93;82.58;100834.91;10456095;28;20053;-72
2022/11/13 13:50:47;;;;;;;14.95;13.55;;;;;;;7.93;82.77;100819.19;10458023;28;20522;-72
2022/11/13 13:56:10;;;;;;;14.05;12.85;;;;;;;7.90;82.69;100821.81;10456897;28;20076;-72
2022/11/13 14:01:32;;;;;;;14.32;13.02;;;;;;;8.05;82.69;100824.28;10456466;28;20049;-76
2022/11/13 14:06:57;;;;;;;17.67;15.88;;;;;;;7.90;84.04;100830.53;10455535;28;20049;-72
2022/11/13 14:12:20;;;;;;;17.63;16.00;;;;;;;7.93;84.82;100825.28;10458593;28;20041;-73
2022/11/13 14:17:40;;;;;;;17.45;16.02;;;;;;;7.88;85.02;100826.19;10456178;28;20048;-73
2022/11/13 14:23:01;;;;;;;17.33;15.85;;;;;;;7.78;86.37;100822.78;10455987;28;20041;-73
2022/11/13 14:28:25;;;;;;;19.02;17.33;;;;;;;7.57;87.55;100819.47;10455920;28;20049;-73
2022/11/13 14:33:48;;;;;;;20.55;18.58;;;;;;;7.73;87.97;100811.47;10457337;28;20128;-72
2022/11/13 14:39:26;;;;;;;21.55;19.55;;;;;;;7.52;88.79;100808.13;10459517;28;20041;-73
2022/11/13 14:44:47;;;;;;;23.75;19.52;;;;;;;7.42;90.20;100793.38;10463365;28;20041;-72
2022/11/13 14:50:10;;;;;;;22.52;20.55;;;;;;;7.44;90.66;100794.25;10462875;28;20045;-71
2022/11/13 14:55:33;;;;;;;22.33;20.33;;;;;;;7.27;91.26;100791.75;10464866;28;20049;-72
2022/11/13 15:00:53;;;;;;;24.05;21.75;;;;;;;7.19;93.00;100787.44;10462061;28;20127;-73
2022/11/13 15:06:14;;;;;;;23.60;21.13;;;;;;;7.07;93.34;100786.63;10462436;28;20049;-72
2022/11/13 15:11:35;;;;;;;24.70;22.25;;;;;;;7.07;94.38;100796.22;10462556;28;20045;-73
2022/11/13 15:16:57;;;;;;;25.83;23.25;;;;;;;6.84;96.36;100791.09;10464122;28;20053;-73
2022/11/13 15:22:18;;;;;;;25.13;22.70;;;;;;;6.86;95.65;100791.09;10462100;28;20041;-73
2022/11/13 15:27:48;;;;;;;33.10;24.30;;;;;;;6.84;96.32;100793.72;10448540;28;20522;-73
2022/11/13 15:33:13;;;;;;;27.08;24.33;;;;;;;6.76;96.80;100787.66;10461601;28;20487;-73
2022/11/13 15:38:34;;;;;;;23.00;19.23;;;;;;;6.53;98.44;100778.16;10462033;28;20044;-74
2022/11/13 15:43:55;;;;;;;31.42;25.73;;;;;;;6.49;98.73;100780.78;10461356;28;20045;-73
2022/11/13 15:49:15;;;;;;;30.20;26.98;;;;;;;6.60;99.57;100786.84;10460440;28;20049;-72
2022/11/13 15:54:37;;;;;;;29.55;25.00;;;;;;;6.47;100.00;100778.19;10460282;28;20422;-73
2022/11/13 15:59:57;;;;;;;34.83;27.17;;;;;;;6.39;100.00;100774.72;10462182;28;20495;-73
2022/11/13 16:05:18;;;;;;;34.28;26.60;;;;;;;6.17;100.00;100773.03;10460159;28;20127;-73
2022/11/13 16:10:38;;;;;;;32.50;26.98;;;;;;;6.17;100.00;100766.06;10461269;28;20053;-73
2022/11/13 16:15:59;;;;;;;39.60;27.38;;;;;;;6.30;100.00;100773.00;10460059;28;20490;-74
2022/11/13 16:21:20;;;;;;;48.10;35.63;;;;;;;6.12;100.00;100764.34;10460672;28;20041;-72
2022/11/13 16:26:49;;;;;;;39.58;28.45;;;;;;;6.24;100.00;100773.03;10459061;28;20049;-72
2022/11/13 16:32:15;;;;;;;35.45;28.15;;;;;;;6.20;100.00;100773.91;10459347;28;20045;-73
2022/11/13 16:37:35;;;;;;;41.53;29.98;;;;;;;6.15;100.00;100773.03;10458665;28;20061;-72
2022/11/13 16:42:56;;;;;;;44.80;31.15;;;;;;;6.23;100.00;100770.41;10460330;28;20127;-72
2022/11/13 16:48:17;;;;;;;42.78;29.63;;;;;;;6.15;100.00;100770.41;10458724;28;20049;-72
2022/11/13 16:53:37;;;;;;;41.60;30.75;;;;;;;6.19;100.00;100769.53;10458926;28;20049;-72
2022/11/13 16:58:57;;;;;;;43.28;30.38;;;;;;;6.10;100.00;100769.56;10443725;28;20052;-73
2022/11/13 17:04:17;;;;;;;42.70;31.23;;;;;;;5.83;100.00;100754.78;10460291;28;20076;-73
2022/11/13 17:09:40;;;;;;;45.78;31.90;;;;;;;5.91;100.00;100755.63;10458698;28;20127;-73
2022/11/13 17:15:00;;;;;;;48.03;33.55;;;;;;;5.98;100.00;100746.13;10462465;28;20053;-73
2022/11/13 17:20:20;;;;;;;44.10;31.45;;;;;;;5.89;100.00;100746.97;10457825;28;20080;-73
2022/11/13 17:25:40;;;;;;;53.65;34.50;;;;;;;5.92;100.00;100733.91;10458298;28;20526;-73
2022/11/13 17:31:06;;;;;;;48.63;34.08;;;;;;;5.89;100.00;100727.78;10457722;28;20041;-73
2022/11/13 17:36:26;;;;;;;61.55;36.75;;;;;;;5.89;100.00;100733.91;10457594;28;20052;-73
2022/11/13 17:41:46;;;;;;;63.35;37.08;;;;;;;5.98;100.00;100722.63;10456851;28;20041;-73
2022/11/13 17:47:07;;;;;;;52.33;33.85;;;;;;;5.60;100.00;100722.63;10443913;28;20085;-73
2022/11/13 17:52:27;;;;;;;70.80;39.10;;;;;;;5.48;100.00;100726.97;10457206;28;20049;-73
2022/11/13 17:57:47;;;;;;;65.93;39.70;;;;;;;5.63;100.00;100713.06;10456997;28;20495;-73
2022/11/13 18:03:07;;;;;;;72.32;41.00;;;;;;;5.51;100.00;100719.16;10456380;28;20041;-73
2022/11/13 18:08:27;;;;;;;55.38;37.03;;;;;;;5.38;100.00;100708.72;10443968;28;20053;-73
2022/11/13 18:13:50;;;;;;;61.22;38.20;;;;;;;5.32;100.00;100710.47;10459733;28;20471;-72
2022/11/13 18:19:10;;;;;;;53.97;35.22;;;;;;;4.95;100.00;100719.94;10467323;28;20057;-72
2022/11/13 18:24:30;;;;;;;62.83;38.95;;;;;;;4.75;100.00;100719.91;10464992;28;20049;-72
2022/11/13 18:29:51;;;;;;;78.20;41.35;;;;;;;4.59;100.00;100712.03;10512815;23;20405;-72
2022/11/13 18:35:11;;;;;;;73.20;40.50;;;;;;;4.49;100.00;100708.53;10510344;28;20494;-72
2022/11/13 18:40:31;;;;;;;75.88;42.65;;;;;;;4.36;100.00;100704.16;10509585;28;20052;-72
2022/11/13 18:46:03;;;;;;;70.65;40.28;;;;;;;4.36;100.00;100702.41;10508802;28;20517;-72
2022/11/13 18:51:27;;;;;;;76.97;43.25;;;;;;;4.59;100.00;100693.81;10494151;28;20127;-72
2022/11/13 18:56:47;;;;;;;82.75;45.80;;;;;;;4.69;100.00;100695.56;10508933;28;20048;-72
2022/11/13 19:02:09;;;;;;;81.28;43.38;;;;;;;4.87;100.00;100687.84;10509937;28;20494;-72
2022/11/13 19:07:30;;;;;;;82.85;47.30;;;;;;;4.91;100.00;100679.13;10495039;28;20048;-72
2022/11/13 19:12:50;;;;;;;75.25;43.80;;;;;;;4.90;100.00;100671.31;10493819;28;20068;-72
2022/11/13 19:18:11;;;;;;;79.15;44.25;;;;;;;4.78;100.00;100670.44;10509545;28;20104;-72
2022/11/13 19:23:31;;;;;;;76.65;45.00;;;;;;;4.66;100.00;100669.56;10507950;28;20076;-71
2022/11/13 19:28:52;;;;;;;78.13;44.20;;;;;;;4.63;100.00;100653.91;10505773;28;20044;-72
2022/11/13 19:34:13;;;;;;;76.18;45.70;;;;;;;4.43;100.00;100657.34;10506873;28;20486;-72
2022/11/13 19:39:33;;;;;;;76.88;44.20;;;;;;;4.29;100.00;100659.91;10503847;28;20079;-72
2022/11/13 19:44:54;;;;;;;126.38;81.30;;;;;;;4.64;100.00;100650.44;10503574;28;20044;-72
2022/11/13 19:50:14;;;;;;;75.28;44.35;;;;;;;4.76;100.00;100656.53;10504728;28;20044;-72
2022/11/13 19:55:35;;;;;;;75.30;44.13;;;;;;;4.64;100.00;100661.72;10506661;28;20048;-71
2022/11/13 20:00:56;;;;;;;75.88;45.55;;;;;;;4.53;100.00;100647.81;10505002;28;20048;-72
2022/11/13 20:06:16;;;;;;;73.50;43.03;;;;;;;4.14;100.00;100648.53;10490008;28;20510;-71
2022/11/13 20:11:37;;;;;;;70.20;43.15;;;;;;;4.28;100.00;100652.06;10504780;28;20049;-72
2022/11/13 20:16:58;;;;;;;73.90;43.28;;;;;;;4.35;100.00;100643.44;10503857;28;20048;-72
2022/11/13 20:22:18;;;;;;;64.97;41.13;;;;;;;4.27;100.00;100642.53;10503572;28;20045;-72
2022/11/13 20:27:39;;;;;;;74.18;42.00;;;;;;;4.13;100.00;100647.69;10505747;28;20080;-71
2022/11/13 20:33:06;;;;;;;67.60;41.97;;;;;;;4.17;100.00;100638.16;10524324;28;20048;-72
2022/11/13 20:38:27;;;;;;;79.63;47.13;;;;;;;4.29;100.00;100627.78;10521212;28;20055;-72
2022/11/13 20:43:48;;;;;;;97.25;54.45;;;;;;;4.70;100.00;100627.88;10546287;28;20044;-72
2022/11/13 20:49:09;;;;;;;109.68;60.22;;;;;;;5.06;100.00;100615.75;10510736;28;20080;-72
2022/11/13 20:54:29;;;;;;;94.00;56.00;;;;;;;5.53;100.00;100623.53;10505734;28;20048;-72
2022/11/13 20:59:49;;;;;;;81.68;50.58;;;;;;;5.97;100.00;100624.31;10504474;28;20044;-72
2022/11/13 21:05:10;;;;;;;69.57;44.33;;;;;;;6.13;100.00;100627.75;10531182;28;20494;-72
2022/11/13 21:10:31;;;;;;;57.33;40.63;;;;;;;6.38;100.00;100621.53;10543982;28;20048;-72
2022/11/13 21:15:52;;;;;;;59.92;40.63;;;;;;;6.38;100.00;100608.47;10544040;28;20044;-72
2022/11/13 21:21:17;;;;;;;55.78;38.80;;;;;;;6.38;100.00;100610.22;10543791;28;20048;-72
2022/11/13 21:26:37;;;;;;;51.58;37.20;;;;;;;6.38;100.00;100599.78;10543636;28;20052;-72
2022/11/13 21:31:57;;;;;;;47.05;37.35;;;;;;;6.26;100.00;100595.47;10528524;28;20048;-72
2022/11/13 21:37:18;;;;;;;50.90;38.22;;;;;;;6.06;100.00;100591.25;10532055;28;20153;-72
2022/11/13 21:42:38;;;;;;;46.10;35.28;;;;;;;6.41;100.00;100590.16;10502427;28;20049;-72
2022/11/13 21:47:59;;;;;;;39.10;32.63;;;;;;;6.49;100.00;100583.16;10502284;28;20079;-72
2022/11/13 21:53:19;;;;;;;32.95;29.63;;;;;;;6.53;100.00;100595.31;10510359;28;20048;-72
2022/11/13 21:58:40;;;;;;;32.10;28.33;;;;;;;6.82;100.00;100589.91;10509972;28;20048;-72
2022/11/13 22:04:00;;;;;;;31.58;28.33;;;;;;;6.89;100.00;100595.06;10509730;28;20049;-72
2022/11/13 22:09:24;;;;;;;29.10;26.42;;;;;;;6.93;100.00;100599.41;10494856;28;20119;-72
2022/11/13 22:14:44;;;;;;;30.55;27.33;;;;;;;6.84;100.00;100608.19;10508975;28;20045;-72
2022/11/13 22:20:05;;;;;;;28.40;25.88;;;;;;;6.80;100.00;100601.22;10493388;28;20044;-72
2022/11/13 22:25:25;;;;;;;27.95;25.48;;;;;;;6.74;100.00;100607.38;10508945;28;20052;-72
2022/11/13 22:30:46;;;;;;;28.73;25.45;;;;;;;6.65;100.00;100601.34;10491914;28;20048;-71
2022/11/13 22:36:12;;;;;;;28.25;25.65;;;;;;;6.58;100.00;100601.38;10508085;28;20052;-71
2022/11/13 22:41:34;;;;;;;29.98;26.23;;;;;;;6.38;100.00;100603.25;10507244;28;20044;-71
2022/11/13 22:46:54;;;;;;;28.65;25.55;;;;;;;6.47;100.00;100602.34;10507196;28;20056;-71
2022/11/13 22:52:14;;;;;;;28.27;24.80;;;;;;;6.41;100.00;100603.22;10507825;28;20041;-71
2022/11/13 22:57:35;;;;;;;31.45;26.13;;;;;;;6.30;100.00;100595.47;10507267;28;20052;-72
2022/11/13 23:02:59;;;;;;;29.65;26.38;;;;;;;6.29;100.00;100598.09;10506188;28;20041;-72
2022/11/13 23:08:20;;;;;;;29.85;26.13;;;;;;;6.32;100.00;100591.09;10491512;28;20049;-72
2022/11/13 23:13:44;;;;;;;28.23;25.45;;;;;;;6.20;100.00;100578.13;10506531;28;20045;-72
2022/11/13 23:19:05;;;;;;;33.28;28.05;;;;;;;6.03;100.00;100561.66;10507102;28;20139;-72
2022/11/13 23:24:25;;;;;;;31.33;28.13;;;;;;;6.03;100.00;100572.97;10507553;28;20040;-72
2022/11/13 23:29:45;;;;;;;29.85;27.02;;;;;;;5.93;100.00;100562.56;10506675;28;20056;-72
2022/11/13 23:35:09;;;;;;;29.05;26.20;;;;;;;5.99;100.00;100562.56;10506190;28;20056;-72
2022/11/13 23:40:29;;;;;;;28.50;25.65;;;;;;;5.85;100.00;100549.53;10490689;28;20041;-72
2022/11/13 23:45:50;;;;;;;28.60;25.77;;;;;;;5.78;100.00;100547.81;10506184;28;20123;-72
2022/11/13 23:51:11;;;;;;;35.65;27.45;;;;;;;5.90;100.00;100552.13;10504711;28;20116;-72
2022/11/13 23:56:31;;;;;;;28.67;25.58;;;;;;;6.00;100.00;100546.03;10503333;28;20127;-72
